sensor_id;sensor_type;location;lat;lon;timestamp;temperature;humidity
21580;DHT22;10951;59.656;9.666;2022-12-19T00:01:35;-4.30;99.90
21580;DHT22;10951;59.656;9.666;2022-12-19T00:04:07;-4.20;99.90
21580;DHT22;10951;59.656;9.666;2022-12-19T00:06:36;-4.10;99.90
21580;DHT22;10951;59.656;9.666;2022-12-19T00:09:10;-4.10;99.90
21580;DHT22;10951;59.656;9.666;2022-12-19T00:11:38;-4.10;99.90
21580;DHT22;10951;59.656;9.666;2022-12-19T00:14:06;-4.20;99.90
21580;DHT22;10951;59.656;9.666;2022-12-19T00:16:33;-4.20;99.90
21580;DHT22;10951;59.656;9.666;2022-12-19T00:19:00;-4.20;99.90
21580;DHT22;10951;59.656;9.666;2022-12-19T00:21:29;-4.20;99.90
21580;DHT22;10951;59.656;9.666;2022-12-19T00:24:05;-4.10;99.90
21580;DHT22;10951;59.656;9.666;2022-12-19T00:26:46;-4.00;99.90
21580;DHT22;10951;59.656;9.666;2022-12-19T00:29:16;-4.00;99.90
21580;DHT22;10951;59.656;9.666;2022-12-19T00:31:44;-4.00;99.90
21580;DHT22;10951;59.656;9.666;2022-12-19T00:34:13;-4.00;99.90
21580;DHT22;10951;59.656;9.666;2022-12-19T00:36:40;-4.00;99.90
21580;DHT22;10951;59.656;9.666;2022-12-19T00:39:07;-4.10;99.90
21580;DHT22;10951;59.656;9.666;2022-12-19T00:41:37;-4.10;99.90
21580;DHT22;10951;59.656;9.666;2022-12-19T00:44:14;-4.20;99.90
21580;DHT22;10951;59.656;9.666;2022-12-19T00:46:41;-4.20;99.90
21580;DHT22;10951;59.656;9.666;2022-12-19T00:49:12;-4.30;99.90
21580;DHT22;10951;59.656;9.666;2022-12-19T00:51:39;-4.30;99.90
21580;DHT22;10951;59.656;9.666;2022-12-19T00:54:08;-4.40;99.90
21580;DHT22;10951;59.656;9.666;2022-12-19T00:56:35;-4.30;99.90
21580;DHT22;10951;59.656;9.666;2022-12-19T00:59:06;-4.20;99.90
21580;DHT22;10951;59.656;9.666;2022-12-19T01:01:35;-4.20;99.90
21580;DHT22;10951;59.656;9.666;2022-12-19T01:04:05;-4.20;99.90
21580;DHT22;10951;59.656;9.666;2022-12-19T01:06:52;-4.20;99.90
21580;DHT22;10951;59.656;9.666;2022-12-19T01:09:19;-4.30;99.90
21580;DHT22;10951;59.656;9.666;2022-12-19T01:11:48;-4.30;99.90
21580;DHT22;10951;59.656;9.666;2022-12-19T01:14:34;-4.20;99.90
21580;DHT22;10951;59.656;9.666;2022-12-19T01:17:01;-4.20;99.90
21580;DHT22;10951;59.656;9.666;2022-12-19T01:19:28;-4.20;99.90
21580;DHT22;10951;59.656;9.666;2022-12-19T01:21:55;-4.20;99.90
21580;DHT22;10951;59.656;9.666;2022-12-19T01:24:22;-4.20;99.90
21580;DHT22;10951;59.656;9.666;2022-12-19T01:26:52;-4.30;99.90
21580;DHT22;10951;59.656;9.666;2022-12-19T01:29:20;-4.30;99.90
21580;DHT22;10951;59.656;9.666;2022-12-19T01:31:46;-4.30;99.90
21580;DHT22;10951;59.656;9.666;2022-12-19T01:34:13;-4.40;99.90
21580;DHT22;10951;59.656;9.666;2022-12-19T01:36:40;-4.40;99.90
21580;DHT22;10951;59.656;9.666;2022-12-19T01:39:07;-4.40;99.90
21580;DHT22;10951;59.656;9.666;2022-12-19T01:41:34;-4.50;99.90
21580;DHT22;10951;59.656;9.666;2022-12-19T01:44:05;-4.40;99.90
21580;DHT22;10951;59.656;9.666;2022-12-19T01:46:36;-4.40;99.90
21580;DHT22;10951;59.656;9.666;2022-12-19T01:49:06;-4.40;99.90
21580;DHT22;10951;59.656;9.666;2022-12-19T01:51:40;-4.40;99.90
21580;DHT22;10951;59.656;9.666;2022-12-19T01:54:12;-4.30;99.90
21580;DHT22;10951;59.656;9.666;2022-12-19T01:56:45;-4.30;99.90
21580;DHT22;10951;59.656;9.666;2022-12-19T01:59:18;-4.30;99.90
21580;DHT22;10951;59.656;9.666;2022-12-19T02:01:46;-4.30;99.90
21580;DHT22;10951;59.656;9.666;2022-12-19T02:04:21;-4.30;99.90
21580;DHT22;10951;59.656;9.666;2022-12-19T02:06:49;-4.30;99.90
21580;DHT22;10951;59.656;9.666;2022-12-19T02:09:17;-4.30;99.90
21580;DHT22;10951;59.656;9.666;2022-12-19T02:11:45;-4.30;99.90
21580;DHT22;10951;59.656;9.666;2022-12-19T02:14:12;-4.30;99.90
21580;DHT22;10951;59.656;9.666;2022-12-19T02:19:47;-4.30;99.90
21580;DHT22;10951;59.656;9.666;2022-12-19T02:22:23;-4.30;99.90
21580;DHT22;10951;59.656;9.666;2022-12-19T02:33:31;-4.30;99.90
21580;DHT22;10951;59.656;9.666;2022-12-19T02:36:18;-4.40;99.90
21580;DHT22;10951;59.656;9.666;2022-12-19T02:38:55;-4.40;99.90
21580;DHT22;10951;59.656;9.666;2022-12-19T02:41:28;-4.40;99.90
21580;DHT22;10951;59.656;9.666;2022-12-19T02:44:19;-4.40;99.90
21580;DHT22;10951;59.656;9.666;2022-12-19T02:46:48;-4.40;99.90
21580;DHT22;10951;59.656;9.666;2022-12-19T02:49:16;-4.40;99.90
21580;DHT22;10951;59.656;9.666;2022-12-19T02:51:50;-4.40;99.90
21580;DHT22;10951;59.656;9.666;2022-12-19T02:54:17;-4.50;99.90
21580;DHT22;10951;59.656;9.666;2022-12-19T02:57:21;-4.40;99.90
21580;DHT22;10951;59.656;9.666;2022-12-19T03:00:05;-4.40;99.90
21580;DHT22;10951;59.656;9.666;2022-12-19T03:03:32;-4.30;99.90
21580;DHT22;10951;59.656;9.666;2022-12-19T03:05:59;-4.30;99.90
21580;DHT22;10951;59.656;9.666;2022-12-19T03:08:49;-4.20;99.90
21580;DHT22;10951;59.656;9.666;2022-12-19T03:11:20;-4.10;99.90
21580;DHT22;10951;59.656;9.666;2022-12-19T03:13:57;-4.10;99.90
21580;DHT22;10951;59.656;9.666;2022-12-19T03:16:25;-4.00;99.90
21580;DHT22;10951;59.656;9.666;2022-12-19T03:18:52;-4.00;99.90
21580;DHT22;10951;59.656;9.666;2022-12-19T03:21:33;-4.00;99.90
21580;DHT22;10951;59.656;9.666;2022-12-19T03:24:03;-4.10;99.90
21580;DHT22;10951;59.656;9.666;2022-12-19T03:26:55;-4.00;99.90
21580;DHT22;10951;59.656;9.666;2022-12-19T03:32:11;-4.10;99.90
21580;DHT22;10951;59.656;9.666;2022-12-19T03:34:59;-4.00;99.90
21580;DHT22;10951;59.656;9.666;2022-12-19T03:37:31;-4.00;99.90
21580;DHT22;10951;59.656;9.666;2022-12-19T03:40:06;-4.00;99.90
21580;DHT22;10951;59.656;9.666;2022-12-19T03:42:35;-4.10;99.90
21580;DHT22;10951;59.656;9.666;2022-12-19T03:45:28;-4.10;99.90
21580;DHT22;10951;59.656;9.666;2022-12-19T03:48:04;-4.00;99.90
21580;DHT22;10951;59.656;9.666;2022-12-19T03:53:47;-4.00;99.90
21580;DHT22;10951;59.656;9.666;2022-12-19T03:59:06;-4.00;99.90
21580;DHT22;10951;59.656;9.666;2022-12-19T04:01:34;-4.00;99.90
21580;DHT22;10951;59.656;9.666;2022-12-19T04:04:02;-4.00;99.90
21580;DHT22;10951;59.656;9.666;2022-12-19T04:06:32;-4.10;99.90
21580;DHT22;10951;59.656;9.666;2022-12-19T04:09:00;-4.10;99.90
21580;DHT22;10951;59.656;9.666;2022-12-19T04:11:32;-4.00;99.90
21580;DHT22;10951;59.656;9.666;2022-12-19T04:14:05;-4.00;99.90
21580;DHT22;10951;59.656;9.666;2022-12-19T04:16:53;-4.00;99.90
21580;DHT22;10951;59.656;9.666;2022-12-19T04:20:00;-4.00;99.90
21580;DHT22;10951;59.656;9.666;2022-12-19T04:22:35;-3.90;99.90
21580;DHT22;10951;59.656;9.666;2022-12-19T04:25:05;-3.90;99.90
21580;DHT22;10951;59.656;9.666;2022-12-19T04:27:36;-3.80;99.90
21580;DHT22;10951;59.656;9.666;2022-12-19T04:30:07;-3.80;99.90
21580;DHT22;10951;59.656;9.666;2022-12-19T04:32:35;-3.90;99.90
21580;DHT22;10951;59.656;9.666;2022-12-19T04:35:02;-3.90;99.90
21580;DHT22;10951;59.656;9.666;2022-12-19T04:37:30;-3.90;99.90
21580;DHT22;10951;59.656;9.666;2022-12-19T04:39:57;-3.90;99.90
21580;DHT22;10951;59.656;9.666;2022-12-19T04:42:24;-3.90;99.90
21580;DHT22;10951;59.656;9.666;2022-12-19T04:44:51;-4.00;99.90
21580;DHT22;10951;59.656;9.666;2022-12-19T04:47:18;-4.00;99.90
21580;DHT22;10951;59.656;9.666;2022-12-19T04:49:45;-4.00;99.90
21580;DHT22;10951;59.656;9.666;2022-12-19T04:52:12;-4.10;99.90
21580;DHT22;10951;59.656;9.666;2022-12-19T04:54:40;-4.10;99.90
21580;DHT22;10951;59.656;9.666;2022-12-19T04:57:07;-4.10;99.90
21580;DHT22;10951;59.656;9.666;2022-12-19T04:59:34;-4.10;99.90
21580;DHT22;10951;59.656;9.666;2022-12-19T05:02:02;-4.10;99.90
21580;DHT22;10951;59.656;9.666;2022-12-19T05:04:29;-4.00;99.90
21580;DHT22;10951;59.656;9.666;2022-12-19T05:06:55;-3.90;99.90
21580;DHT22;10951;59.656;9.666;2022-12-19T05:09:24;-4.00;99.90
21580;DHT22;10951;59.656;9.666;2022-12-19T05:11:51;-3.90;99.90
21580;DHT22;10951;59.656;9.666;2022-12-19T05:14:18;-3.90;99.90
21580;DHT22;10951;59.656;9.666;2022-12-19T05:16:45;-3.90;99.90
21580;DHT22;10951;59.656;9.666;2022-12-19T05:19:11;-3.90;99.90
21580;DHT22;10951;59.656;9.666;2022-12-19T05:21:39;-3.90;99.90
21580;DHT22;10951;59.656;9.666;2022-12-19T05:24:06;-3.90;99.90
21580;DHT22;10951;59.656;9.666;2022-12-19T05:26:33;-3.80;99.90
21580;DHT22;10951;59.656;9.666;2022-12-19T05:29:00;-3.80;99.90
21580;DHT22;10951;59.656;9.666;2022-12-19T05:31:27;-3.80;99.90
21580;DHT22;10951;59.656;9.666;2022-12-19T05:33:54;-3.80;99.90
21580;DHT22;10951;59.656;9.666;2022-12-19T05:36:20;-3.70;99.90
21580;DHT22;10951;59.656;9.666;2022-12-19T05:38:53;-3.80;99.90
21580;DHT22;10951;59.656;9.666;2022-12-19T05:41:20;-3.70;99.90
21580;DHT22;10951;59.656;9.666;2022-12-19T05:43:52;-3.70;99.90
21580;DHT22;10951;59.656;9.666;2022-12-19T05:46:21;-3.60;99.90
21580;DHT22;10951;59.656;9.666;2022-12-19T05:48:49;-3.70;99.90
21580;DHT22;10951;59.656;9.666;2022-12-19T05:51:16;-3.70;99.90
21580;DHT22;10951;59.656;9.666;2022-12-19T05:53:43;-3.70;99.90
21580;DHT22;10951;59.656;9.666;2022-12-19T05:56:13;-3.80;99.90
21580;DHT22;10951;59.656;9.666;2022-12-19T05:58:41;-3.80;99.90
21580;DHT22;10951;59.656;9.666;2022-12-19T06:01:09;-3.80;99.90
21580;DHT22;10951;59.656;9.666;2022-12-19T06:03:37;-3.80;99.90
21580;DHT22;10951;59.656;9.666;2022-12-19T06:06:06;-3.80;99.90
21580;DHT22;10951;59.656;9.666;2022-12-19T06:08:33;-3.90;99.90
21580;DHT22;10951;59.656;9.666;2022-12-19T06:11:01;-3.80;99.90
21580;DHT22;10951;59.656;9.666;2022-12-19T06:13:30;-3.80;99.90
21580;DHT22;10951;59.656;9.666;2022-12-19T06:16:00;-3.80;99.90
21580;DHT22;10951;59.656;9.666;2022-12-19T06:18:28;-3.80;99.90
21580;DHT22;10951;59.656;9.666;2022-12-19T06:21:03;-3.70;99.90
21580;DHT22;10951;59.656;9.666;2022-12-19T06:23:33;-3.60;99.90
21580;DHT22;10951;59.656;9.666;2022-12-19T06:26:02;-3.70;99.90
21580;DHT22;10951;59.656;9.666;2022-12-19T06:28:31;-3.60;99.90
21580;DHT22;10951;59.656;9.666;2022-12-19T06:31:01;-3.60;99.90
21580;DHT22;10951;59.656;9.666;2022-12-19T06:33:29;-3.60;99.90
21580;DHT22;10951;59.656;9.666;2022-12-19T06:36:05;-3.60;99.90
21580;DHT22;10951;59.656;9.666;2022-12-19T06:38:33;-3.60;99.90
21580;DHT22;10951;59.656;9.666;2022-12-19T06:41:02;-3.70;99.90
21580;DHT22;10951;59.656;9.666;2022-12-19T06:43:48;-3.60;99.90
21580;DHT22;10951;59.656;9.666;2022-12-19T06:46:19;-3.60;99.90
21580;DHT22;10951;59.656;9.666;2022-12-19T06:48:46;-3.60;99.90
21580;DHT22;10951;59.656;9.666;2022-12-19T06:51:13;-3.60;99.90
21580;DHT22;10951;59.656;9.666;2022-12-19T06:53:40;-3.70;99.90
21580;DHT22;10951;59.656;9.666;2022-12-19T06:56:07;-3.70;99.90
21580;DHT22;10951;59.656;9.666;2022-12-19T06:58:34;-3.70;99.90
21580;DHT22;10951;59.656;9.666;2022-12-19T07:01:01;-3.60;99.90
21580;DHT22;10951;59.656;9.666;2022-12-19T07:03:33;-3.70;99.90
21580;DHT22;10951;59.656;9.666;2022-12-19T07:06:02;-3.60;99.90
21580;DHT22;10951;59.656;9.666;2022-12-19T07:08:29;-3.60;99.90
21580;DHT22;10951;59.656;9.666;2022-12-19T07:10:57;-3.50;99.90
21580;DHT22;10951;59.656;9.666;2022-12-19T07:13:24;-3.50;99.90
21580;DHT22;10951;59.656;9.666;2022-12-19T07:15:51;-3.50;99.90
21580;DHT22;10951;59.656;9.666;2022-12-19T07:18:19;-3.50;99.90
21580;DHT22;10951;59.656;9.666;2022-12-19T07:20:46;-3.60;99.90
21580;DHT22;10951;59.656;9.666;2022-12-19T07:23:16;-3.60;99.90
21580;DHT22;10951;59.656;9.666;2022-12-19T07:25:43;-3.60;99.90
21580;DHT22;10951;59.656;9.666;2022-12-19T07:28:11;-3.70;99.90
21580;DHT22;10951;59.656;9.666;2022-12-19T07:30:38;-3.70;99.90
21580;DHT22;10951;59.656;9.666;2022-12-19T07:33:05;-3.70;99.90
21580;DHT22;10951;59.656;9.666;2022-12-19T07:35:36;-3.70;99.90
21580;DHT22;10951;59.656;9.666;2022-12-19T07:38:04;-3.70;99.90
21580;DHT22;10951;59.656;9.666;2022-12-19T07:40:32;-3.70;99.90
21580;DHT22;10951;59.656;9.666;2022-12-19T07:43:01;-3.70;99.90
21580;DHT22;10951;59.656;9.666;2022-12-19T07:45:28;-3.80;99.90
21580;DHT22;10951;59.656;9.666;2022-12-19T07:47:58;-3.70;99.90
21580;DHT22;10951;59.656;9.666;2022-12-19T07:50:25;-3.70;99.90
21580;DHT22;10951;59.656;9.666;2022-12-19T07:52:52;-3.70;99.90
21580;DHT22;10951;59.656;9.666;2022-12-19T07:55:19;-3.70;99.90
21580;DHT22;10951;59.656;9.666;2022-12-19T07:57:46;-3.70;99.90
21580;DHT22;10951;59.656;9.666;2022-12-19T08:00:13;-3.60;99.90
21580;DHT22;10951;59.656;9.666;2022-12-19T08:02:40;-3.60;99.90
21580;DHT22;10951;59.656;9.666;2022-12-19T08:05:07;-3.50;99.90
21580;DHT22;10951;59.656;9.666;2022-12-19T08:07:34;-3.50;99.90
21580;DHT22;10951;59.656;9.666;2022-12-19T08:10:02;-3.40;99.90
21580;DHT22;10951;59.656;9.666;2022-12-19T08:12:28;-3.40;99.90
21580;DHT22;10951;59.656;9.666;2022-12-19T08:14:59;-3.40;99.90
21580;DHT22;10951;59.656;9.666;2022-12-19T08:17:25;-3.40;99.90
21580;DHT22;10951;59.656;9.666;2022-12-19T08:19:52;-3.40;99.90
21580;DHT22;10951;59.656;9.666;2022-12-19T08:22:19;-3.40;99.90
21580;DHT22;10951;59.656;9.666;2022-12-19T08:24:46;-3.40;99.90
21580;DHT22;10951;59.656;9.666;2022-12-19T08:27:15;-3.30;99.90
21580;DHT22;10951;59.656;9.666;2022-12-19T08:29:42;-3.30;99.90
21580;DHT22;10951;59.656;9.666;2022-12-19T08:32:09;-3.40;99.90
21580;DHT22;10951;59.656;9.666;2022-12-19T08:34:44;-3.30;99.90
21580;DHT22;10951;59.656;9.666;2022-12-19T08:37:11;-3.30;99.90
21580;DHT22;10951;59.656;9.666;2022-12-19T08:39:38;-3.30;99.90
21580;DHT22;10951;59.656;9.666;2022-12-19T08:42:05;-3.20;99.90
21580;DHT22;10951;59.656;9.666;2022-12-19T08:44:32;-3.20;99.90
21580;DHT22;10951;59.656;9.666;2022-12-19T08:46:59;-3.20;99.90
21580;DHT22;10951;59.656;9.666;2022-12-19T08:49:26;-3.10;99.90
21580;DHT22;10951;59.656;9.666;2022-12-19T08:51:53;-3.10;99.90
21580;DHT22;10951;59.656;9.666;2022-12-19T08:54:19;-3.20;99.90
21580;DHT22;10951;59.656;9.666;2022-12-19T08:56:46;-3.20;99.90
21580;DHT22;10951;59.656;9.666;2022-12-19T08:59:14;-3.30;99.90
21580;DHT22;10951;59.656;9.666;2022-12-19T09:01:55;-3.30;99.90
21580;DHT22;10951;59.656;9.666;2022-12-19T09:04:23;-3.30;99.90
21580;DHT22;10951;59.656;9.666;2022-12-19T09:07:09;-3.30;99.90
21580;DHT22;10951;59.656;9.666;2022-12-19T09:09:41;-3.30;99.90
21580;DHT22;10951;59.656;9.666;2022-12-19T09:12:07;-3.40;99.90
21580;DHT22;10951;59.656;9.666;2022-12-19T09:14:34;-3.40;99.90
21580;DHT22;10951;59.656;9.666;2022-12-19T09:17:01;-3.40;99.90
21580;DHT22;10951;59.656;9.666;2022-12-19T09:19:30;-3.30;99.90
21580;DHT22;10951;59.656;9.666;2022-12-19T09:21:57;-3.40;99.90
21580;DHT22;10951;59.656;9.666;2022-12-19T09:24:25;-3.30;99.90
21580;DHT22;10951;59.656;9.666;2022-12-19T09:26:52;-3.40;99.90
21580;DHT22;10951;59.656;9.666;2022-12-19T09:29:18;-3.30;99.90
21580;DHT22;10951;59.656;9.666;2022-12-19T09:31:50;-3.30;99.90
21580;DHT22;10951;59.656;9.666;2022-12-19T09:34:22;-3.30;99.90
21580;DHT22;10951;59.656;9.666;2022-12-19T09:36:58;-3.30;99.90
21580;DHT22;10951;59.656;9.666;2022-12-19T09:39:25;-3.30;99.90
21580;DHT22;10951;59.656;9.666;2022-12-19T09:42:19;-3.30;99.90
21580;DHT22;10951;59.656;9.666;2022-12-19T09:47:33;-3.20;99.90
21580;DHT22;10951;59.656;9.666;2022-12-19T09:50:00;-3.30;99.90
21580;DHT22;10951;59.656;9.666;2022-12-19T09:55:28;-3.30;99.90
21580;DHT22;10951;59.656;9.666;2022-12-19T09:58:30;-3.10;99.90
21580;DHT22;10951;59.656;9.666;2022-12-19T10:01:01;-3.10;99.90
21580;DHT22;10951;59.656;9.666;2022-12-19T10:03:35;-3.20;99.90
21580;DHT22;10951;59.656;9.666;2022-12-19T10:09:02;-3.20;99.90
21580;DHT22;10951;59.656;9.666;2022-12-19T10:15:28;-3.00;99.90
21580;DHT22;10951;59.656;9.666;2022-12-19T10:18:22;-3.00;99.90
21580;DHT22;10951;59.656;9.666;2022-12-19T10:21:05;-3.00;99.90
21580;DHT22;10951;59.656;9.666;2022-12-19T10:23:46;-3.00;99.90
21580;DHT22;10951;59.656;9.666;2022-12-19T10:26:17;-3.10;99.90
21580;DHT22;10951;59.656;9.666;2022-12-19T10:29:11;-3.00;99.90
21580;DHT22;10951;59.656;9.666;2022-12-19T10:31:51;-3.00;99.90
21580;DHT22;10951;59.656;9.666;2022-12-19T10:34:29;-3.00;99.90
21580;DHT22;10951;59.656;9.666;2022-12-19T10:37:27;-3.00;99.90
21580;DHT22;10951;59.656;9.666;2022-12-19T10:40:14;-3.00;99.90
21580;DHT22;10951;59.656;9.666;2022-12-19T10:43:19;-2.90;99.90
21580;DHT22;10951;59.656;9.666;2022-12-19T10:46:01;-2.90;99.90
21580;DHT22;10951;59.656;9.666;2022-12-19T10:48:29;-2.90;99.90
21580;DHT22;10951;59.656;9.666;2022-12-19T10:50:57;-3.00;99.90
21580;DHT22;10951;59.656;9.666;2022-12-19T10:53:32;-3.00;99.90
21580;DHT22;10951;59.656;9.666;2022-12-19T10:56:01;-3.00;99.90
21580;DHT22;10951;59.656;9.666;2022-12-19T10:58:41;-2.90;99.90
21580;DHT22;10951;59.656;9.666;2022-12-19T11:01:22;-2.90;99.90
21580;DHT22;10951;59.656;9.666;2022-12-19T11:06:49;-2.90;99.90
21580;DHT22;10951;59.656;9.666;2022-12-19T11:09:35;-2.90;99.90
21580;DHT22;10951;59.656;9.666;2022-12-19T11:12:09;-2.80;99.90
21580;DHT22;10951;59.656;9.666;2022-12-19T11:18:08;-2.80;99.90
21580;DHT22;10951;59.656;9.666;2022-12-19T11:21:16;-2.80;99.90
21580;DHT22;10951;59.656;9.666;2022-12-19T11:24:10;-2.80;99.90
21580;DHT22;10951;59.656;9.666;2022-12-19T11:26:58;-2.80;99.90
21580;DHT22;10951;59.656;9.666;2022-12-19T11:29:47;-2.80;99.90
21580;DHT22;10951;59.656;9.666;2022-12-19T11:32:37;-2.80;99.90
21580;DHT22;10951;59.656;9.666;2022-12-19T11:38:00;-2.90;99.90
21580;DHT22;10951;59.656;9.666;2022-12-19T11:40:39;-2.90;99.90
21580;DHT22;10951;59.656;9.666;2022-12-19T11:43:31;-2.80;99.90
21580;DHT22;10951;59.656;9.666;2022-12-19T11:46:37;-2.80;99.90
21580;DHT22;10951;59.656;9.666;2022-12-19T11:51:59;-2.70;99.90
21580;DHT22;10951;59.656;9.666;2022-12-19T11:54:33;-2.70;99.90
21580;DHT22;10951;59.656;9.666;2022-12-19T11:57:03;-2.70;99.90
21580;DHT22;10951;59.656;9.666;2022-12-19T11:59:36;-2.70;99.90
21580;DHT22;10951;59.656;9.666;2022-12-19T12:02:36;-2.70;99.90
21580;DHT22;10951;59.656;9.666;2022-12-19T12:11:01;-2.60;99.90
21580;DHT22;10951;59.656;9.666;2022-12-19T12:17:17;-2.50;99.90
21580;DHT22;10951;59.656;9.666;2022-12-19T12:23:27;-2.40;99.90
21580;DHT22;10951;59.656;9.666;2022-12-19T12:33:07;-2.30;99.90
21580;DHT22;10951;59.656;9.666;2022-12-19T12:36:01;-2.30;99.90
21580;DHT22;10951;59.656;9.666;2022-12-19T12:39:03;-2.30;99.90
21580;DHT22;10951;59.656;9.666;2022-12-19T12:41:51;-2.30;99.90
21580;DHT22;10951;59.656;9.666;2022-12-19T12:44:41;-2.20;99.90
21580;DHT22;10951;59.656;9.666;2022-12-19T12:47:14;-2.20;99.90
21580;DHT22;10951;59.656;9.666;2022-12-19T12:49:57;-2.10;99.90
21580;DHT22;10951;59.656;9.666;2022-12-19T12:55:00;-2.00;99.90
21580;DHT22;10951;59.656;9.666;2022-12-19T13:00:22;-2.00;99.90
21580;DHT22;10951;59.656;9.666;2022-12-19T13:02:53;-2.00;99.90
21580;DHT22;10951;59.656;9.666;2022-12-19T13:07:52;-2.00;99.90
21580;DHT22;10951;59.656;9.666;2022-12-19T13:10:21;-2.10;99.90
21580;DHT22;10951;59.656;9.666;2022-12-19T13:18:10;-2.10;99.90
21580;DHT22;10951;59.656;9.666;2022-12-19T13:20:46;-2.20;99.90
21580;DHT22;10951;59.656;9.666;2022-12-19T13:26:00;-2.30;99.90
21580;DHT22;10951;59.656;9.666;2022-12-19T13:37:01;-2.30;99.90
21580;DHT22;10951;59.656;9.666;2022-12-19T13:42:36;-2.30;99.90
21580;DHT22;10951;59.656;9.666;2022-12-19T13:45:38;-2.30;99.90
21580;DHT22;10951;59.656;9.666;2022-12-19T13:48:14;-2.20;99.90
21580;DHT22;10951;59.656;9.666;2022-12-19T13:50:42;-2.20;99.90
21580;DHT22;10951;59.656;9.666;2022-12-19T13:53:20;-2.20;99.90
21580;DHT22;10951;59.656;9.666;2022-12-19T13:55:49;-2.20;99.90
21580;DHT22;10951;59.656;9.666;2022-12-19T13:58:24;-2.20;99.90
21580;DHT22;10951;59.656;9.666;2022-12-19T14:00:59;-2.20;99.90
21580;DHT22;10951;59.656;9.666;2022-12-19T14:03:35;-2.20;99.90
21580;DHT22;10951;59.656;9.666;2022-12-19T14:06:27;-2.10;99.90
21580;DHT22;10951;59.656;9.666;2022-12-19T14:09:08;-2.10;99.90
21580;DHT22;10951;59.656;9.666;2022-12-19T14:12:13;-2.10;99.90
21580;DHT22;10951;59.656;9.666;2022-12-19T14:15:26;-2.20;99.90
21580;DHT22;10951;59.656;9.666;2022-12-19T14:17:54;-2.20;99.90
21580;DHT22;10951;59.656;9.666;2022-12-19T14:20:26;-2.20;99.90
21580;DHT22;10951;59.656;9.666;2022-12-19T14:23:13;-2.30;99.90
21580;DHT22;10951;59.656;9.666;2022-12-19T14:25:52;-2.30;99.90
21580;DHT22;10951;59.656;9.666;2022-12-19T14:28:45;-2.30;99.90
21580;DHT22;10951;59.656;9.666;2022-12-19T14:31:21;-2.30;99.90
21580;DHT22;10951;59.656;9.666;2022-12-19T14:33:48;-2.20;99.90
21580;DHT22;10951;59.656;9.666;2022-12-19T14:36:37;-2.30;99.90
21580;DHT22;10951;59.656;9.666;2022-12-19T14:39:05;-2.30;99.90
21580;DHT22;10951;59.656;9.666;2022-12-19T14:41:53;-2.40;99.90
21580;DHT22;10951;59.656;9.666;2022-12-19T14:44:57;-2.40;99.90
21580;DHT22;10951;59.656;9.666;2022-12-19T14:47:44;-2.40;99.90
21580;DHT22;10951;59.656;9.666;2022-12-19T14:50:35;-2.30;99.90
21580;DHT22;10951;59.656;9.666;2022-12-19T14:53:23;-2.20;99.90
21580;DHT22;10951;59.656;9.666;2022-12-19T14:56:15;-2.30;99.90
21580;DHT22;10951;59.656;9.666;2022-12-19T14:59:03;-2.30;99.90
21580;DHT22;10951;59.656;9.666;2022-12-19T15:01:33;-2.30;99.90
21580;DHT22;10951;59.656;9.666;2022-12-19T15:04:04;-2.30;99.90
21580;DHT22;10951;59.656;9.666;2022-12-19T15:06:55;-2.40;99.90
21580;DHT22;10951;59.656;9.666;2022-12-19T15:13:28;-2.40;99.90
21580;DHT22;10951;59.656;9.666;2022-12-19T15:18:54;-2.40;99.90
21580;DHT22;10951;59.656;9.666;2022-12-19T15:21:22;-2.40;99.90
21580;DHT22;10951;59.656;9.666;2022-12-19T15:23:50;-2.40;99.90
21580;DHT22;10951;59.656;9.666;2022-12-19T15:26:28;-2.40;99.90
21580;DHT22;10951;59.656;9.666;2022-12-19T15:28:56;-2.40;99.90
21580;DHT22;10951;59.656;9.666;2022-12-19T15:31:35;-2.40;99.90
21580;DHT22;10951;59.656;9.666;2022-12-19T15:36:59;-2.40;99.90
21580;DHT22;10951;59.656;9.666;2022-12-19T15:39:26;-2.40;99.90
21580;DHT22;10951;59.656;9.666;2022-12-19T15:41:57;-2.30;99.90
21580;DHT22;10951;59.656;9.666;2022-12-19T15:44:27;-2.20;99.90
21580;DHT22;10951;59.656;9.666;2022-12-19T15:46:55;-2.20;99.90
21580;DHT22;10951;59.656;9.666;2022-12-19T15:49:23;-2.20;99.90
21580;DHT22;10951;59.656;9.666;2022-12-19T15:51:50;-2.20;99.90
21580;DHT22;10951;59.656;9.666;2022-12-19T15:54:17;-2.20;99.90
21580;DHT22;10951;59.656;9.666;2022-12-19T15:57:06;-2.20;99.90
21580;DHT22;10951;59.656;9.666;2022-12-19T15:59:38;-2.10;99.90
21580;DHT22;10951;59.656;9.666;2022-12-19T16:02:14;-2.10;99.90
21580;DHT22;10951;59.656;9.666;2022-12-19T16:04:42;-2.20;99.90
21580;DHT22;10951;59.656;9.666;2022-12-19T16:07:20;-2.20;99.90
21580;DHT22;10951;59.656;9.666;2022-12-19T16:09:47;-2.10;99.90
21580;DHT22;10951;59.656;9.666;2022-12-19T16:12:28;-2.10;99.90
21580;DHT22;10951;59.656;9.666;2022-12-19T16:14:58;-2.10;99.90
21580;DHT22;10951;59.656;9.666;2022-12-19T16:17:29;-2.00;99.90
21580;DHT22;10951;59.656;9.666;2022-12-19T16:19:57;-2.00;99.90
21580;DHT22;10951;59.656;9.666;2022-12-19T16:22:27;-1.90;99.90
21580;DHT22;10951;59.656;9.666;2022-12-19T16:24:55;-1.90;99.90
21580;DHT22;10951;59.656;9.666;2022-12-19T16:27:27;-2.00;99.90
21580;DHT22;10951;59.656;9.666;2022-12-19T16:29:55;-2.00;99.90
21580;DHT22;10951;59.656;9.666;2022-12-19T16:32:24;-2.00;99.90
21580;DHT22;10951;59.656;9.666;2022-12-19T16:34:52;-2.10;99.90
21580;DHT22;10951;59.656;9.666;2022-12-19T16:37:19;-2.10;99.90
21580;DHT22;10951;59.656;9.666;2022-12-19T16:39:46;-2.20;99.90
21580;DHT22;10951;59.656;9.666;2022-12-19T16:42:17;-2.10;99.90
21580;DHT22;10951;59.656;9.666;2022-12-19T16:44:45;-2.10;99.90
21580;DHT22;10951;59.656;9.666;2022-12-19T16:47:14;-2.10;99.90
21580;DHT22;10951;59.656;9.666;2022-12-19T16:49:43;-2.10;99.90
21580;DHT22;10951;59.656;9.666;2022-12-19T16:52:11;-2.10;99.90
21580;DHT22;10951;59.656;9.666;2022-12-19T16:54:38;-2.10;99.90
21580;DHT22;10951;59.656;9.666;2022-12-19T16:57:11;-2.10;99.90
21580;DHT22;10951;59.656;9.666;2022-12-19T16:59:41;-2.10;99.90
21580;DHT22;10951;59.656;9.666;2022-12-19T17:02:36;-2.00;99.90
21580;DHT22;10951;59.656;9.666;2022-12-19T17:05:05;-2.00;99.90
21580;DHT22;10951;59.656;9.666;2022-12-19T17:07:34;-2.00;99.90
21580;DHT22;10951;59.656;9.666;2022-12-19T17:10:01;-2.00;99.90
21580;DHT22;10951;59.656;9.666;2022-12-19T17:12:28;-2.00;99.90
21580;DHT22;10951;59.656;9.666;2022-12-19T17:14:55;-1.90;99.90
21580;DHT22;10951;59.656;9.666;2022-12-19T17:17:21;-1.90;99.90
21580;DHT22;10951;59.656;9.666;2022-12-19T17:19:48;-1.90;99.90
21580;DHT22;10951;59.656;9.666;2022-12-19T17:22:17;-2.00;99.90
21580;DHT22;10951;59.656;9.666;2022-12-19T17:24:45;-1.90;99.90
21580;DHT22;10951;59.656;9.666;2022-12-19T17:27:13;-1.90;99.90
21580;DHT22;10951;59.656;9.666;2022-12-19T17:29:40;-2.00;99.90
21580;DHT22;10951;59.656;9.666;2022-12-19T17:32:08;-2.00;99.90
21580;DHT22;10951;59.656;9.666;2022-12-19T17:34:35;-2.00;99.90
21580;DHT22;10951;59.656;9.666;2022-12-19T17:37:03;-2.00;99.90
21580;DHT22;10951;59.656;9.666;2022-12-19T17:39:31;-2.00;99.90
21580;DHT22;10951;59.656;9.666;2022-12-19T17:42:21;-1.90;99.90
21580;DHT22;10951;59.656;9.666;2022-12-19T17:44:48;-1.90;99.90
21580;DHT22;10951;59.656;9.666;2022-12-19T17:47:17;-1.90;99.90
21580;DHT22;10951;59.656;9.666;2022-12-19T17:49:46;-1.90;99.90